WRC7736 LKTB-LUKK
Flight info
| Callsign | WRC7736 |
|---|---|
| Flight time | 1h 19m |
| Altitude | 33000 |
| Route | N0450F330 UPLAV P27 MAKAL DCT UDREL DCT MALBE M991 IVF L986 INROG M860 ERADA |
| Aircraft | A319/M-G/L |
Departure
| Time | 2026-04-21 07:17 |
|---|---|
| Airport | Brno-Tuřany Airport (LKTB) |
Arrival
| Time | 2026-04-21 08:36 |
|---|---|
| Airport | Chişinău International Airport (LUKK) |
| Time | Latitude | Longitude | Altitude | Speed | Heading |
|---|---|---|---|---|---|
| 2026-04-21 06:57 | 49.15397 | 16.68948 | 785 ft | 0 kts | 6° |
| 2026-04-21 07:11 | 49.15394 | 16.68948 | 785 ft | 2 kts | 5° |
| 2026-04-21 07:11 | 49.15379 | 16.68947 | 784 ft | 2 kts | 18° |
| 2026-04-21 07:11 | 49.15367 | 16.68933 | 784 ft | 2 kts | 62° |
| 2026-04-21 07:12 | 49.15364 | 16.68915 | 784 ft | 0 kts | 93° |
| 2026-04-21 07:12 | 49.15365 | 16.68904 | 784 ft | 1 kts | 98° |
| 2026-04-21 07:12 | 49.15365 | 16.68903 | 784 ft | 0 kts | 98° |
| 2026-04-21 07:13 | 49.15365 | 16.68905 | 784 ft | 0 kts | 98° |
| 2026-04-21 07:13 | 49.15355 | 16.69012 | 783 ft | 17 kts | 97° |
| 2026-04-21 07:14 | 49.15342 | 16.69196 | 782 ft | 18 kts | 95° |
| 2026-04-21 07:14 | 49.15322 | 16.69408 | 777 ft | 23 kts | 97° |
| 2026-04-21 07:14 | 49.15299 | 16.69673 | 772 ft | 26 kts | 97° |
| 2026-04-21 07:14 | 49.15274 | 16.69967 | 768 ft | 28 kts | 98° |
| 2026-04-21 07:15 | 49.15248 | 16.70275 | 765 ft | 29 kts | 97° |
| 2026-04-21 07:15 | 49.15221 | 16.70572 | 766 ft | 27 kts | 98° |
| 2026-04-21 07:15 | 49.15199 | 16.70852 | 770 ft | 25 kts | 95° |
| 2026-04-21 07:15 | 49.15199 | 16.71112 | 773 ft | 23 kts | 101° |
| 2026-04-21 07:16 | 49.15067 | 16.71201 | 771 ft | 23 kts | 189° |
| 2026-04-21 07:16 | 49.14993 | 16.70990 | 770 ft | 44 kts | 276° |
| 2026-04-21 07:16 | 49.15068 | 16.70118 | 764 ft | 119 kts | 277° |
| 2026-04-21 07:16 | 49.15198 | 16.68593 | 890 ft | 165 kts | 281° |
| 2026-04-21 07:17 | 49.15355 | 16.66853 | 1519 ft | 169 kts | 281° |
| 2026-04-21 07:17 | 49.15517 | 16.65074 | 2316 ft | 170 kts | 281° |
| 2026-04-21 07:17 | 49.15649 | 16.63648 | 2886 ft | 174 kts | 279° |
| 2026-04-21 07:17 | 49.15811 | 16.61823 | 3352 ft | 189 kts | 279° |
| 2026-04-21 07:18 | 49.15993 | 16.59682 | 3783 ft | 212 kts | 279° |
| 2026-04-21 07:18 | 49.16445 | 16.57458 | 4254 ft | 231 kts | 307° |
| 2026-04-21 07:18 | 49.17778 | 16.55989 | 4743 ft | 249 kts | 346° |
| 2026-04-21 07:18 | 49.19544 | 16.56144 | 5351 ft | 263 kts | 24° |
| 2026-04-21 07:19 | 49.20909 | 16.57922 | 6197 ft | 269 kts | 59° |
| 2026-04-21 07:19 | 49.21408 | 16.60622 | 7079 ft | 273 kts | 88° |
| 2026-04-21 07:19 | 49.21327 | 16.63557 | 7931 ft | 277 kts | 94° |
| 2026-04-21 07:19 | 49.21189 | 16.66486 | 8735 ft | 282 kts | 92° |
| 2026-04-21 07:20 | 49.21110 | 16.69525 | 9563 ft | 285 kts | 90° |
| 2026-04-21 07:20 | 49.21096 | 16.72562 | 10342 ft | 290 kts | 88° |
| 2026-04-21 07:20 | 49.21129 | 16.75742 | 10885 ft | 304 kts | 87° |
| 2026-04-21 07:20 | 49.21196 | 16.79094 | 11265 ft | 323 kts | 86° |
| 2026-04-21 07:21 | 49.21283 | 16.82512 | 11600 ft | 341 kts | 86° |
| 2026-04-21 07:21 | 49.21382 | 16.86129 | 11922 ft | 357 kts | 86° |
| 2026-04-21 07:21 | 49.21491 | 16.89951 | 12505 ft | 365 kts | 86° |
| 2026-04-21 07:21 | 49.21601 | 16.93832 | 13246 ft | 368 kts | 86° |
| 2026-04-21 07:22 | 49.21716 | 16.97837 | 13961 ft | 371 kts | 86° |
| 2026-04-21 07:22 | 49.21830 | 17.01795 | 14626 ft | 375 kts | 86° |
| 2026-04-21 07:22 | 49.21946 | 17.05835 | 15282 ft | 379 kts | 86° |
| 2026-04-21 07:22 | 49.22060 | 17.09886 | 15930 ft | 382 kts | 86° |
| 2026-04-21 07:23 | 49.22174 | 17.13983 | 16554 ft | 385 kts | 86° |
| 2026-04-21 07:23 | 49.22288 | 17.18113 | 17153 ft | 389 kts | 86° |
| 2026-04-21 07:23 | 49.22402 | 17.22287 | 17736 ft | 392 kts | 86° |
| 2026-04-21 07:23 | 49.22515 | 17.26504 | 18305 ft | 396 kts | 86° |
| 2026-04-21 07:24 | 49.22627 | 17.30747 | 18858 ft | 399 kts | 86° |
| 2026-04-21 07:24 | 49.22740 | 17.35054 | 19403 ft | 402 kts | 86° |
| 2026-04-21 07:24 | 49.22851 | 17.39396 | 19935 ft | 405 kts | 86° |
| 2026-04-21 07:24 | 49.22962 | 17.43779 | 20451 ft | 408 kts | 86° |
| 2026-04-21 07:25 | 49.23072 | 17.48126 | 20953 ft | 411 kts | 86° |
| 2026-04-21 07:25 | 49.23181 | 17.52540 | 21452 ft | 413 kts | 86° |
| 2026-04-21 07:25 | 49.23289 | 17.56990 | 21931 ft | 416 kts | 86° |
| 2026-04-21 07:25 | 49.23396 | 17.61488 | 22402 ft | 419 kts | 86° |
| 2026-04-21 07:26 | 49.23502 | 17.65977 | 22860 ft | 421 kts | 87° |
| 2026-04-21 07:26 | 49.23605 | 17.70450 | 23302 ft | 423 kts | 87° |
| 2026-04-21 07:26 | 49.23709 | 17.75025 | 23740 ft | 426 kts | 87° |
| 2026-04-21 07:26 | 49.23812 | 17.79641 | 24170 ft | 428 kts | 87° |
| 2026-04-21 07:27 | 49.23900 | 17.83586 | 24519 ft | 430 kts | 87° |
| 2026-04-21 07:27 | 49.24000 | 17.88215 | 24901 ft | 434 kts | 86° |
| 2026-04-21 07:27 | 49.24101 | 17.92940 | 25271 ft | 437 kts | 86° |
| 2026-04-21 07:27 | 49.24200 | 17.97631 | 25634 ft | 440 kts | 86° |
| 2026-04-21 07:28 | 49.24298 | 18.02335 | 25987 ft | 443 kts | 87° |
| 2026-04-21 07:28 | 49.24393 | 18.07066 | 26329 ft | 446 kts | 87° |
| 2026-04-21 07:28 | 49.24477 | 18.11764 | 26666 ft | 448 kts | 88° |
| 2026-04-21 07:28 | 49.24435 | 18.16569 | 27000 ft | 452 kts | 91° |
| 2026-04-21 07:29 | 49.24212 | 18.21379 | 27312 ft | 455 kts | 95° |
| 2026-04-21 07:29 | 49.23833 | 18.26290 | 27627 ft | 458 kts | 96° |
| 2026-04-21 07:29 | 49.23412 | 18.31130 | 27925 ft | 461 kts | 96° |
| 2026-04-21 07:29 | 49.22975 | 18.36072 | 28219 ft | 464 kts | 96° |
| 2026-04-21 07:30 | 49.22549 | 18.40958 | 28519 ft | 466 kts | 96° |
| 2026-04-21 07:30 | 49.22116 | 18.45971 | 28920 ft | 466 kts | 96° |
| 2026-04-21 07:30 | 49.21697 | 18.50867 | 29321 ft | 465 kts | 96° |
| 2026-04-21 07:30 | 49.21275 | 18.55809 | 29697 ft | 466 kts | 96° |
| 2026-04-21 07:31 | 49.20856 | 18.60721 | 30060 ft | 466 kts | 96° |
| 2026-04-21 07:31 | 49.20461 | 18.65335 | 30404 ft | 466 kts | 97° |
| 2026-04-21 07:31 | 49.20090 | 18.69655 | 30702 ft | 467 kts | 97° |
| 2026-04-21 07:31 | 49.19679 | 18.74429 | 31032 ft | 467 kts | 97° |
| 2026-04-21 07:32 | 49.19246 | 18.79438 | 31379 ft | 467 kts | 97° |
| 2026-04-21 07:32 | 49.18809 | 18.84457 | 31679 ft | 469 kts | 96° |
| 2026-04-21 07:32 | 49.18373 | 18.89446 | 31932 ft | 471 kts | 97° |
| 2026-04-21 07:32 | 49.17939 | 18.94381 | 32174 ft | 473 kts | 97° |
| 2026-04-21 07:33 | 49.17493 | 18.99434 | 32420 ft | 474 kts | 97° |
| 2026-04-21 07:33 | 49.17050 | 19.04418 | 32672 ft | 475 kts | 97° |
| 2026-04-21 07:33 | 49.16601 | 19.09440 | 32906 ft | 477 kts | 97° |
| 2026-04-21 07:33 | 49.16146 | 19.14506 | 33076 ft | 479 kts | 97° |
| 2026-04-21 07:34 | 49.15237 | 19.24549 | 33089 ft | 479 kts | 97° |
| 2026-04-21 07:34 | 49.14307 | 19.34730 | 33087 ft | 480 kts | 97° |
| 2026-04-21 07:35 | 49.13359 | 19.45004 | 33084 ft | 491 kts | 97° |
| 2026-04-21 07:35 | 49.12388 | 19.55428 | 33081 ft | 497 kts | 97° |
| 2026-04-21 07:36 | 49.11399 | 19.65926 | 33077 ft | 497 kts | 97° |
| 2026-04-21 07:36 | 49.10402 | 19.76428 | 33074 ft | 497 kts | 97° |
| 2026-04-21 07:37 | 49.09396 | 19.86911 | 33073 ft | 497 kts | 97° |
| 2026-04-21 07:37 | 49.08384 | 19.97358 | 33073 ft | 497 kts | 97° |
| 2026-04-21 07:38 | 49.07363 | 20.07795 | 33073 ft | 497 kts | 98° |
| 2026-04-21 07:38 | 49.06326 | 20.18281 | 33073 ft | 497 kts | 98° |
| 2026-04-21 07:39 | 49.05277 | 20.28802 | 33073 ft | 498 kts | 98° |
| 2026-04-21 07:39 | 49.04227 | 20.39217 | 33073 ft | 498 kts | 98° |
| 2026-04-21 07:40 | 49.03156 | 20.49746 | 33074 ft | 499 kts | 98° |
| 2026-04-21 07:40 | 49.02078 | 20.60251 | 33074 ft | 499 kts | 98° |
| 2026-04-21 07:41 | 49.00995 | 20.70726 | 33073 ft | 499 kts | 98° |
| 2026-04-21 07:41 | 48.99902 | 20.81189 | 33073 ft | 499 kts | 98° |
| 2026-04-21 07:42 | 48.98794 | 20.91703 | 33073 ft | 499 kts | 98° |
| 2026-04-21 07:42 | 48.97674 | 21.02222 | 33069 ft | 499 kts | 98° |
| 2026-04-21 07:43 | 48.96557 | 21.12628 | 33063 ft | 499 kts | 98° |
| 2026-04-21 07:43 | 48.95437 | 21.22968 | 33055 ft | 499 kts | 98° |
| 2026-04-21 07:44 | 48.94298 | 21.33386 | 33050 ft | 499 kts | 98° |
| 2026-04-21 07:44 | 48.93153 | 21.43776 | 33047 ft | 499 kts | 98° |
| 2026-04-21 07:45 | 48.91988 | 21.54255 | 33046 ft | 499 kts | 98° |
| 2026-04-21 07:45 | 48.90818 | 21.64687 | 33046 ft | 500 kts | 98° |
| 2026-04-21 07:46 | 48.89625 | 21.75214 | 33044 ft | 500 kts | 99° |
| 2026-04-21 07:46 | 48.88386 | 21.85824 | 33045 ft | 500 kts | 99° |
| 2026-04-21 07:47 | 48.87167 | 21.96323 | 33045 ft | 501 kts | 99° |
| 2026-04-21 07:47 | 48.85936 | 22.06936 | 33045 ft | 501 kts | 99° |
| 2026-04-21 07:48 | 48.84707 | 22.17483 | 33045 ft | 501 kts | 99° |
| 2026-04-21 07:48 | 48.83478 | 22.27972 | 33045 ft | 501 kts | 99° |
| 2026-04-21 07:49 | 48.82295 | 22.38381 | 33045 ft | 501 kts | 97° |
| 2026-04-21 07:49 | 48.81470 | 22.48924 | 33045 ft | 500 kts | 95° |
| 2026-04-21 07:50 | 48.80736 | 22.58924 | 33044 ft | 500 kts | 95° |
| 2026-04-21 07:50 | 48.79946 | 22.69581 | 33044 ft | 500 kts | 96° |
| 2026-04-21 07:51 | 48.79155 | 22.80121 | 33045 ft | 500 kts | 96° |
| 2026-04-21 07:51 | 48.78359 | 22.90570 | 33045 ft | 499 kts | 96° |
| 2026-04-21 07:52 | 48.77549 | 23.01047 | 33045 ft | 499 kts | 96° |
| 2026-04-21 07:52 | 48.76723 | 23.11593 | 33045 ft | 499 kts | 96° |
| 2026-04-21 07:53 | 48.75897 | 23.22008 | 33045 ft | 499 kts | 96° |
| 2026-04-21 07:53 | 48.75052 | 23.32528 | 33045 ft | 499 kts | 96° |
| 2026-04-21 07:54 | 48.74201 | 23.43003 | 33044 ft | 499 kts | 96° |
| 2026-04-21 07:54 | 48.73343 | 23.53438 | 33044 ft | 500 kts | 96° |
| 2026-04-21 07:55 | 48.72475 | 23.63889 | 33044 ft | 500 kts | 96° |
| 2026-04-21 07:55 | 48.71594 | 23.74398 | 33044 ft | 500 kts | 97° |
| 2026-04-21 07:56 | 48.70708 | 23.84850 | 33046 ft | 500 kts | 97° |
| 2026-04-21 07:56 | 48.69807 | 23.95346 | 33050 ft | 501 kts | 97° |
| 2026-04-21 07:57 | 48.68898 | 24.05815 | 33059 ft | 500 kts | 97° |
| 2026-04-21 07:57 | 48.67990 | 24.16157 | 33065 ft | 500 kts | 97° |
| 2026-04-21 07:58 | 48.67061 | 24.26638 | 33069 ft | 500 kts | 97° |
| 2026-04-21 07:58 | 48.66124 | 24.37089 | 33071 ft | 499 kts | 97° |
| 2026-04-21 07:59 | 48.65182 | 24.47480 | 33071 ft | 499 kts | 97° |
| 2026-04-21 07:59 | 48.64223 | 24.57945 | 33071 ft | 499 kts | 97° |
| 2026-04-21 08:00 | 48.63259 | 24.68387 | 33071 ft | 498 kts | 98° |
| 2026-04-21 08:00 | 48.62288 | 24.78811 | 33071 ft | 498 kts | 98° |
| 2026-04-21 08:01 | 48.61304 | 24.89256 | 33071 ft | 497 kts | 98° |
| 2026-04-21 08:02 | 48.59819 | 25.04821 | 33071 ft | 497 kts | 98° |
| 2026-04-21 08:02 | 48.58818 | 25.15168 | 33071 ft | 497 kts | 98° |
| 2026-04-21 08:03 | 48.57807 | 25.25530 | 33071 ft | 497 kts | 98° |
| 2026-04-21 08:03 | 48.56788 | 25.35869 | 33071 ft | 497 kts | 98° |
| 2026-04-21 08:04 | 48.55760 | 25.46210 | 33071 ft | 497 kts | 98° |
| 2026-04-21 08:04 | 48.54768 | 25.56082 | 33071 ft | 497 kts | 98° |
| 2026-04-21 08:05 | 48.53708 | 25.66549 | 33070 ft | 497 kts | 99° |
| 2026-04-21 08:05 | 48.52651 | 25.76919 | 33071 ft | 497 kts | 99° |
| 2026-04-21 08:06 | 48.51585 | 25.87269 | 33071 ft | 497 kts | 99° |
| 2026-04-21 08:06 | 48.50515 | 25.97558 | 33071 ft | 497 kts | 99° |
| 2026-04-21 08:07 | 48.49423 | 26.07958 | 33071 ft | 497 kts | 99° |
| 2026-04-21 08:07 | 48.48327 | 26.18296 | 33071 ft | 497 kts | 99° |
| 2026-04-21 08:08 | 48.47214 | 26.28710 | 33071 ft | 497 kts | 99° |
| 2026-04-21 08:08 | 48.46234 | 26.37805 | 33071 ft | 497 kts | 99° |
| 2026-04-21 08:09 | 48.45121 | 26.48078 | 33071 ft | 497 kts | 99° |
| 2026-04-21 08:09 | 48.43986 | 26.58460 | 33071 ft | 496 kts | 99° |
| 2026-04-21 08:10 | 48.42786 | 26.68587 | 33070 ft | 496 kts | 104° |
| 2026-04-21 08:10 | 48.40517 | 26.78365 | 33071 ft | 493 kts | 117° |
| 2026-04-21 08:10 | 48.38893 | 26.82901 | 33069 ft | 480 kts | 123° |
| 2026-04-21 08:11 | 48.37038 | 26.87000 | 33071 ft | 475 kts | 129° |
| 2026-04-21 08:11 | 48.32583 | 26.94332 | 32859 ft | 471 kts | 138° |
| 2026-04-21 08:11 | 48.30202 | 26.97768 | 32598 ft | 469 kts | 139° |
| 2026-04-21 08:12 | 48.27844 | 27.01142 | 32201 ft | 466 kts | 139° |
| 2026-04-21 08:12 | 48.25519 | 27.04476 | 31629 ft | 464 kts | 139° |
| 2026-04-21 08:12 | 48.23174 | 27.07850 | 30891 ft | 465 kts | 138° |
| 2026-04-21 08:12 | 48.20881 | 27.11156 | 30120 ft | 467 kts | 138° |
| 2026-04-21 08:13 | 48.18512 | 27.14575 | 29317 ft | 469 kts | 138° |
| 2026-04-21 08:13 | 48.16154 | 27.17977 | 28545 ft | 469 kts | 138° |
| 2026-04-21 08:13 | 48.13795 | 27.21381 | 27872 ft | 466 kts | 138° |
| 2026-04-21 08:13 | 48.11476 | 27.24723 | 27416 ft | 458 kts | 138° |
| 2026-04-21 08:14 | 48.09219 | 27.27977 | 26946 ft | 451 kts | 138° |
| 2026-04-21 08:14 | 48.06956 | 27.31234 | 26454 ft | 445 kts | 138° |
| 2026-04-21 08:14 | 48.04728 | 27.34436 | 25960 ft | 440 kts | 138° |
| 2026-04-21 08:14 | 48.02522 | 27.37602 | 25464 ft | 435 kts | 138° |
| 2026-04-21 08:15 | 48.00339 | 27.40729 | 24972 ft | 430 kts | 138° |
| 2026-04-21 08:15 | 47.98177 | 27.43826 | 24475 ft | 426 kts | 138° |
| 2026-04-21 08:15 | 47.96056 | 27.46859 | 23986 ft | 422 kts | 138° |
| 2026-04-21 08:15 | 47.94037 | 27.49740 | 23516 ft | 418 kts | 139° |
| 2026-04-21 08:16 | 47.91924 | 27.52748 | 23017 ft | 414 kts | 138° |
| 2026-04-21 08:16 | 47.89881 | 27.55657 | 22535 ft | 411 kts | 138° |
| 2026-04-21 08:16 | 47.87756 | 27.58665 | 22018 ft | 409 kts | 138° |
| 2026-04-21 08:16 | 47.85646 | 27.61643 | 21507 ft | 406 kts | 138° |
| 2026-04-21 08:17 | 47.83595 | 27.64540 | 21007 ft | 404 kts | 138° |
| 2026-04-21 08:17 | 47.81554 | 27.67432 | 20505 ft | 402 kts | 139° |
| 2026-04-21 08:17 | 47.79533 | 27.70305 | 20006 ft | 400 kts | 138° |
| 2026-04-21 08:17 | 47.77498 | 27.73191 | 19505 ft | 398 kts | 138° |
| 2026-04-21 08:18 | 47.75514 | 27.76001 | 19018 ft | 396 kts | 138° |
| 2026-04-21 08:18 | 47.73517 | 27.78822 | 18524 ft | 394 kts | 138° |
| 2026-04-21 08:18 | 47.71516 | 27.81646 | 18025 ft | 392 kts | 138° |
| 2026-04-21 08:18 | 47.69532 | 27.84441 | 17530 ft | 391 kts | 138° |
| 2026-04-21 08:19 | 47.67573 | 27.87196 | 17048 ft | 389 kts | 138° |
| 2026-04-21 08:19 | 47.65602 | 27.89964 | 16563 ft | 387 kts | 137° |
| 2026-04-21 08:19 | 47.63632 | 27.92730 | 16080 ft | 385 kts | 137° |
| 2026-04-21 08:19 | 47.61680 | 27.95468 | 15598 ft | 384 kts | 137° |
| 2026-04-21 08:20 | 47.59749 | 27.98174 | 15124 ft | 382 kts | 137° |
| 2026-04-21 08:20 | 47.57796 | 28.00908 | 14637 ft | 380 kts | 137° |
| 2026-04-21 08:20 | 47.55884 | 28.03583 | 14155 ft | 378 kts | 137° |
| 2026-04-21 08:20 | 47.53956 | 28.06278 | 13668 ft | 376 kts | 137° |
| 2026-04-21 08:21 | 47.52040 | 28.08954 | 13182 ft | 374 kts | 137° |
| 2026-04-21 08:21 | 47.50175 | 28.11554 | 12721 ft | 371 kts | 137° |
| 2026-04-21 08:21 | 47.48294 | 28.14171 | 12248 ft | 368 kts | 136° |
| 2026-04-21 08:21 | 47.46418 | 28.16780 | 11772 ft | 365 kts | 136° |
| 2026-04-21 08:22 | 47.44474 | 28.19185 | 11306 ft | 362 kts | 146° |
| 2026-04-21 08:22 | 47.42285 | 28.20954 | 10864 ft | 358 kts | 157° |
| 2026-04-21 08:22 | 47.39954 | 28.22135 | 10450 ft | 353 kts | 163° |
| 2026-04-21 08:22 | 47.37667 | 28.23119 | 10331 ft | 321 kts | 164° |
| 2026-04-21 08:23 | 47.35619 | 28.23984 | 10255 ft | 294 kts | 163° |
| 2026-04-21 08:23 | 47.33654 | 28.24821 | 10173 ft | 294 kts | 163° |
| 2026-04-21 08:23 | 47.31699 | 28.25666 | 10097 ft | 293 kts | 163° |
| 2026-04-21 08:23 | 47.29753 | 28.26514 | 9927 ft | 294 kts | 163° |
| 2026-04-21 08:24 | 47.27766 | 28.27382 | 9586 ft | 292 kts | 163° |
| 2026-04-21 08:24 | 47.25839 | 28.28226 | 9275 ft | 289 kts | 162° |
| 2026-04-21 08:24 | 47.23923 | 28.29067 | 8972 ft | 286 kts | 162° |
| 2026-04-21 08:24 | 47.22008 | 28.29909 | 8671 ft | 283 kts | 162° |
| 2026-04-21 08:25 | 47.20125 | 28.30737 | 8368 ft | 281 kts | 162° |
| 2026-04-21 08:25 | 47.18269 | 28.31553 | 8069 ft | 279 kts | 162° |
| 2026-04-21 08:25 | 47.16398 | 28.32375 | 7766 ft | 277 kts | 162° |
| 2026-04-21 08:25 | 47.14558 | 28.33183 | 7467 ft | 275 kts | 161° |
| 2026-04-21 08:26 | 47.12732 | 28.33984 | 7171 ft | 273 kts | 161° |
| 2026-04-21 08:26 | 47.10907 | 28.34785 | 6877 ft | 271 kts | 161° |
| 2026-04-21 08:26 | 47.09109 | 28.35572 | 6585 ft | 270 kts | 161° |
| 2026-04-21 08:26 | 47.07319 | 28.36353 | 6296 ft | 268 kts | 161° |
| 2026-04-21 08:27 | 47.05511 | 28.37142 | 6004 ft | 267 kts | 161° |
| 2026-04-21 08:27 | 47.03730 | 28.37919 | 5717 ft | 265 kts | 160° |
| 2026-04-21 08:27 | 47.02086 | 28.39053 | 5422 ft | 258 kts | 139° |
| 2026-04-21 08:27 | 47.00906 | 28.40980 | 5159 ft | 250 kts | 120° |
| 2026-04-21 08:28 | 46.99990 | 28.43152 | 4855 ft | 251 kts | 117° |
| 2026-04-21 08:28 | 46.99099 | 28.45362 | 4585 ft | 249 kts | 117° |
| 2026-04-21 08:28 | 46.98233 | 28.47493 | 4555 ft | 236 kts | 117° |
| 2026-04-21 08:28 | 46.97392 | 28.49518 | 4526 ft | 223 kts | 117° |
| 2026-04-21 08:29 | 46.96582 | 28.51453 | 4502 ft | 219 kts | 117° |
| 2026-04-21 08:29 | 46.95789 | 28.53338 | 4460 ft | 219 kts | 117° |
| 2026-04-21 08:29 | 46.94983 | 28.55254 | 4358 ft | 222 kts | 117° |
| 2026-04-21 08:29 | 46.94172 | 28.57163 | 4256 ft | 207 kts | 117° |
| 2026-04-21 08:30 | 46.93422 | 28.58925 | 4139 ft | 202 kts | 117° |
| 2026-04-21 08:30 | 46.92726 | 28.60682 | 3744 ft | 198 kts | 109° |
| 2026-04-21 08:30 | 46.92314 | 28.62559 | 3466 ft | 187 kts | 96° |
| 2026-04-21 08:30 | 46.92177 | 28.64273 | 3382 ft | 165 kts | 87° |
| 2026-04-21 08:31 | 46.92184 | 28.65868 | 3370 ft | 149 kts | 81° |
| 2026-04-21 08:31 | 46.92233 | 28.67323 | 3379 ft | 135 kts | 83° |
| 2026-04-21 08:31 | 46.92281 | 28.68713 | 3255 ft | 132 kts | 83° |
| 2026-04-21 08:31 | 46.92318 | 28.70085 | 3080 ft | 131 kts | 82° |
| 2026-04-21 08:32 | 46.92348 | 28.71382 | 2905 ft | 131 kts | 82° |
| 2026-04-21 08:32 | 46.92376 | 28.72691 | 2752 ft | 130 kts | 84° |
| 2026-04-21 08:32 | 46.92400 | 28.74034 | 2539 ft | 132 kts | 82° |
| 2026-04-21 08:32 | 46.92426 | 28.75369 | 2400 ft | 130 kts | 85° |
| 2026-04-21 08:33 | 46.92448 | 28.76713 | 2201 ft | 129 kts | 82° |
| 2026-04-21 08:33 | 46.92471 | 28.78024 | 2036 ft | 129 kts | 83° |
| 2026-04-21 08:33 | 46.92494 | 28.79332 | 1860 ft | 129 kts | 83° |
| 2026-04-21 08:33 | 46.92518 | 28.80614 | 1691 ft | 128 kts | 82° |
| 2026-04-21 08:34 | 46.92544 | 28.81937 | 1537 ft | 129 kts | 85° |
| 2026-04-21 08:34 | 46.92571 | 28.83248 | 1363 ft | 128 kts | 85° |
| 2026-04-21 08:34 | 46.92597 | 28.84559 | 1178 ft | 128 kts | 83° |
| 2026-04-21 08:34 | 46.92623 | 28.85855 | 1024 ft | 128 kts | 84° |
| 2026-04-21 08:35 | 46.92649 | 28.87147 | 840 ft | 127 kts | 82° |
| 2026-04-21 08:35 | 46.92676 | 28.88435 | 677 ft | 126 kts | 85° |
| 2026-04-21 08:35 | 46.92705 | 28.89715 | 486 ft | 125 kts | 83° |
| 2026-04-21 08:35 | 46.92734 | 28.90988 | 340 ft | 123 kts | 82° |
| 2026-04-21 08:36 | 46.92762 | 28.92030 | 333 ft | 66 kts | 90° |
| 2026-04-21 08:36 | 46.92767 | 28.92499 | 333 ft | 41 kts | 92° |
| 2026-04-21 08:36 | 46.92776 | 28.92904 | 333 ft | 38 kts | 90° |
| 2026-04-21 08:36 | 46.92778 | 28.93276 | 333 ft | 31 kts | 81° |
| 2026-04-21 08:37 | 46.92884 | 28.93414 | 333 ft | 19 kts | 359° |
| 2026-04-21 08:37 | 46.93021 | 28.93415 | 333 ft | 19 kts | 8° |
| 2026-04-21 08:37 | 46.93154 | 28.93442 | 333 ft | 19 kts | 9° |
| 2026-04-21 08:37 | 46.93276 | 28.93463 | 333 ft | 13 kts | 6° |
| 2026-04-21 08:38 | 46.93315 | 28.93503 | 333 ft | 2 kts | 90° |
| 2026-04-21 08:38 | 46.93342 | 28.93537 | 333 ft | 6 kts | 7° |
| 2026-04-21 08:38 | 46.93370 | 28.93542 | 333 ft | 0 kts | 8° |